createdAt,value
2019-02-28T00:01:46.326Z,17.77
2019-02-28T00:04:16.316Z,17.50
2019-02-28T00:06:45.730Z,18.63
2019-02-28T00:09:15.025Z,18.93
2019-02-28T00:11:44.753Z,19.40
2019-02-28T00:14:14.086Z,19.33
2019-02-28T00:16:43.405Z,21.20
2019-02-28T00:19:12.796Z,19.97
2019-02-28T00:21:42.099Z,22.07
2019-02-28T00:24:11.782Z,18.77
2019-02-28T00:26:46.435Z,18.90
2019-02-28T00:29:12.180Z,19.80
2019-02-28T00:31:41.459Z,20.77
2019-02-28T00:34:10.828Z,18.60
2019-02-28T00:36:40.442Z,18.90
2019-02-28T00:39:09.673Z,20.37
2019-02-28T00:41:42.979Z,16.70
2019-02-28T00:44:10.033Z,18.43
2019-02-28T00:46:44.041Z,19.80
2019-02-28T00:49:10.447Z,20.60
2019-02-28T00:51:39.748Z,16.97
2019-02-28T00:54:09.723Z,24.43
2019-02-28T00:56:39.237Z,22.77
2019-02-28T00:59:08.468Z,22.87
2019-02-28T01:01:37.772Z,23.30
2019-02-28T01:04:07.472Z,24.57
2019-02-28T01:06:36.783Z,24.00
2019-02-28T01:09:08.433Z,26.40
2019-02-28T01:11:37.743Z,25.47
2019-02-28T01:14:07.083Z,24.23
2019-02-28T01:16:36.498Z,23.40
2019-02-28T01:19:08.715Z,25.77
2019-02-28T01:21:36.974Z,25.33
2019-02-28T01:24:06.327Z,25.27
2019-02-28T01:26:35.711Z,23.87
2019-02-28T01:29:05.012Z,24.17
2019-02-28T01:31:34.327Z,26.03
2019-02-28T01:34:03.628Z,25.10
2019-02-28T01:36:33.070Z,25.40
2019-02-28T01:39:02.643Z,26.43
2019-02-28T01:41:32.246Z,25.27
2019-02-28T01:44:02.678Z,26.77
2019-02-28T01:46:32.278Z,27.00
2019-02-28T01:49:01.564Z,28.00
2019-02-28T01:51:35.681Z,25.53
2019-02-28T01:54:02.323Z,27.80
2019-02-28T01:56:34.313Z,25.97
2019-02-28T01:59:03.070Z,25.10
2019-02-28T02:01:32.398Z,26.70
2019-02-28T02:04:02.135Z,24.53
2019-02-28T02:06:32.006Z,25.93
2019-02-28T02:09:01.298Z,26.30
2019-02-28T02:11:30.642Z,25.30
2019-02-28T02:13:59.981Z,25.17
2019-02-28T02:16:29.350Z,25.73
2019-02-28T02:18:58.616Z,24.23
2019-02-28T02:21:27.954Z,26.70
2019-02-28T02:23:57.338Z,26.53
2019-02-28T02:26:26.859Z,25.50
2019-02-28T02:29:00.872Z,28.17
2019-02-28T02:31:28.922Z,25.43
2019-02-28T02:33:58.579Z,25.07
2019-02-28T02:36:31.537Z,26.87
2019-02-28T02:39:01.204Z,25.37
2019-02-28T02:41:33.517Z,26.53
2019-02-28T02:44:01.616Z,26.30
2019-02-28T02:46:31.013Z,25.50
2019-02-28T02:49:00.441Z,26.60
2019-02-28T02:51:30.165Z,25.70
2019-02-28T02:53:59.521Z,25.63
2019-02-28T02:56:28.945Z,25.87
2019-02-28T02:59:01.099Z,24.97
2019-02-28T03:01:29.359Z,29.80
2019-02-28T03:03:58.753Z,27.17
2019-02-28T03:06:28.069Z,28.23
2019-02-28T03:09:29.691Z,27.50
2019-02-28T03:11:59.072Z,27.93
2019-02-28T03:14:28.402Z,27.00
2019-02-28T03:16:57.694Z,29.90
2019-02-28T03:19:33.157Z,27.80
2019-02-28T03:21:58.047Z,28.70
2019-02-28T03:24:27.382Z,27.00
2019-02-28T03:26:56.732Z,27.43
2019-02-28T03:29:26.422Z,27.30
2019-02-28T03:31:59.053Z,29.47
2019-02-28T03:34:26.822Z,28.07
2019-02-28T03:36:57.581Z,26.60
2019-02-28T03:39:27.235Z,28.40
2019-02-28T03:41:57.344Z,27.50
2019-02-28T03:44:27.143Z,29.50
2019-02-28T03:46:56.488Z,29.07
2019-02-28T03:49:25.884Z,29.33
2019-02-28T03:51:55.289Z,32.50
2019-02-28T03:54:28.843Z,31.87
2019-02-28T03:56:55.747Z,33.03
2019-02-28T03:59:25.187Z,32.10
2019-02-28T04:01:54.492Z,30.40
2019-02-28T04:04:23.816Z,36.70
2019-02-28T04:06:53.120Z,32.70
2019-02-28T04:09:22.429Z,32.13
2019-02-28T04:11:52.157Z,32.07
2019-02-28T04:14:21.810Z,32.47
2019-02-28T04:16:54.134Z,33.00
2019-02-28T04:19:23.037Z,32.30
2019-02-28T04:21:52.612Z,35.00
2019-02-28T04:24:22.925Z,31.17
2019-02-28T04:26:52.314Z,32.63
2019-02-28T04:29:21.960Z,30.57
2019-02-28T04:31:52.415Z,35.10
2019-02-28T04:34:22.004Z,33.77
2019-02-28T04:36:51.322Z,31.03
2019-02-28T04:39:22.737Z,33.57
2019-02-28T04:41:51.727Z,30.07
2019-02-28T04:44:21.032Z,32.90
2019-02-28T04:46:50.375Z,29.73
2019-02-28T04:49:22.706Z,32.57
2019-02-28T04:51:51.093Z,31.67
2019-02-28T04:54:20.429Z,34.13
2019-02-28T04:56:49.808Z,29.70
2019-02-28T04:59:19.120Z,33.10
2019-02-28T05:02:07.507Z,30.20
2019-02-28T05:04:55.983Z,29.97
2019-02-28T05:07:26.309Z,29.67
2019-02-28T05:09:56.737Z,29.73
2019-02-28T05:12:26.052Z,31.70
2019-02-28T05:14:58.472Z,29.17
2019-02-28T05:17:26.401Z,29.53
2019-02-28T05:19:55.706Z,26.53
2019-02-28T05:22:27.574Z,28.07
2019-02-28T05:24:56.009Z,35.60
2019-02-28T05:27:25.345Z,29.20
2019-02-28T05:29:54.588Z,28.00
2019-02-28T05:32:23.978Z,34.57
2019-02-28T05:34:53.313Z,31.27
2019-02-28T05:37:22.645Z,37.00
2019-02-28T05:39:51.971Z,48.27
2019-02-28T05:42:23.356Z,41.87
2019-02-28T05:44:52.654Z,32.80
2019-02-28T05:47:21.978Z,29.20
2019-02-28T05:49:51.348Z,28.10
2019-02-28T05:52:20.635Z,28.27
2019-02-28T05:54:50.386Z,26.93
2019-02-28T05:57:20.714Z,30.20
2019-02-28T05:59:50.035Z,24.73
2019-02-28T06:02:22.590Z,30.30
2019-02-28T06:04:50.401Z,29.80
2019-02-28T06:07:19.733Z,28.57
2019-02-28T06:09:49.814Z,31.40
2019-02-28T06:12:19.137Z,31.30
2019-02-28T06:14:48.927Z,29.30
2019-02-28T06:17:20.649Z,27.53
2019-02-28T06:19:49.350Z,31.20
2019-02-28T06:22:20.110Z,29.87
2019-02-28T06:24:50.125Z,26.10
2019-02-28T06:27:19.430Z,30.40
2019-02-28T06:29:48.754Z,28.70
2019-02-28T06:32:23.243Z,31.17
2019-02-28T06:34:49.098Z,28.10
2019-02-28T06:37:18.792Z,27.17
2019-02-28T06:39:48.221Z,32.83
2019-02-28T06:42:17.470Z,26.00
2019-02-28T06:44:49.346Z,27.70
2019-02-28T06:47:18.709Z,28.13
2019-02-28T06:49:48.052Z,29.87
2019-02-28T06:52:17.350Z,31.13
2019-02-28T06:54:46.745Z,29.13
2019-02-28T06:57:16.113Z,30.90
2019-02-28T06:59:45.447Z,28.70
2019-02-28T07:02:14.760Z,28.77
2019-02-28T07:04:45.478Z,27.47
2019-02-28T07:07:15.087Z,28.93
2019-02-28T07:09:44.494Z,27.80
2019-02-28T07:12:13.865Z,28.30
2019-02-28T07:14:44.499Z,30.93
2019-02-28T07:17:14.874Z,27.87
2019-02-28T07:19:44.301Z,28.90
2019-02-28T07:22:19.239Z,30.70
2019-02-28T07:24:45.290Z,31.70
2019-02-28T07:27:14.580Z,30.57
2019-02-28T07:29:43.979Z,28.47
2019-02-28T07:32:13.281Z,29.27
2019-02-28T07:34:42.600Z,28.73
2019-02-28T07:37:11.900Z,31.00
2019-02-28T07:39:41.251Z,30.63
2019-02-28T07:42:10.595Z,29.60
2019-02-28T07:44:40.056Z,28.57
2019-02-28T07:47:09.707Z,29.97
2019-02-28T07:49:39.024Z,31.20
2019-02-28T07:52:08.824Z,28.07
2019-02-28T07:54:38.150Z,30.13
2019-02-28T07:57:07.793Z,31.93
2019-02-28T07:59:42.354Z,32.30
2019-02-28T08:02:09.078Z,32.80
2019-02-28T08:04:38.392Z,34.73
2019-02-28T08:07:11.433Z,32.57
2019-02-28T08:09:41.536Z,34.77
2019-02-28T08:12:12.185Z,36.93
2019-02-28T08:14:43.625Z,34.37
2019-02-28T08:17:13.259Z,32.43
2019-02-28T08:19:42.550Z,33.90
2019-02-28T08:22:11.889Z,33.53
2019-02-28T08:24:41.573Z,34.57
2019-02-28T08:27:10.904Z,35.30
2019-02-28T08:29:44.786Z,32.27
2019-02-28T08:32:11.252Z,34.77
2019-02-28T08:34:40.573Z,34.63
2019-02-28T08:37:11.145Z,34.40
2019-02-28T08:39:41.158Z,33.10
2019-02-28T08:42:11.377Z,32.50
2019-02-28T08:44:40.772Z,33.70
2019-02-28T08:47:10.165Z,30.67
2019-02-28T08:49:44.696Z,33.37
2019-02-28T08:52:10.528Z,29.77
2019-02-28T08:54:39.954Z,33.23
2019-02-28T08:57:09.254Z,29.53
2019-02-28T08:59:38.567Z,30.97
2019-02-28T09:02:07.861Z,29.70
2019-02-28T09:04:41.157Z,31.97
2019-02-28T09:07:09.154Z,30.63
2019-02-28T09:09:38.550Z,31.00
2019-02-28T09:12:07.870Z,29.70
2019-02-28T09:14:37.209Z,28.60
2019-02-28T09:17:06.514Z,30.13
2019-02-28T09:19:36.750Z,28.77
2019-02-28T09:22:06.250Z,29.10
2019-02-28T09:24:36.369Z,28.20
2019-02-28T09:27:05.725Z,31.60
2019-02-28T09:29:35.147Z,27.60
2019-02-28T09:32:04.457Z,26.50
2019-02-28T09:34:33.756Z,30.20
2019-02-28T09:37:03.074Z,28.60
2019-02-28T09:39:32.401Z,28.70
2019-02-28T09:42:03.261Z,28.17
2019-02-28T09:44:34.864Z,27.13
2019-02-28T09:47:04.246Z,27.70
2019-02-28T09:49:33.525Z,26.93
2019-02-28T09:52:06.289Z,28.30
2019-02-28T09:54:34.331Z,28.00
2019-02-28T09:57:03.666Z,26.73
2019-02-28T09:59:37.503Z,28.23
2019-02-28T10:02:08.171Z,29.67
2019-02-28T10:04:35.474Z,29.50
2019-02-28T10:07:05.192Z,29.10
2019-02-28T10:09:34.490Z,29.27
2019-02-28T10:12:04.602Z,28.73
2019-02-28T10:14:35.099Z,28.07
2019-02-28T10:17:04.436Z,28.20
2019-02-28T10:19:42.803Z,29.57
2019-02-28T10:22:04.846Z,27.30
2019-02-28T10:24:34.184Z,28.60
2019-02-28T10:27:03.677Z,29.77
2019-02-28T10:29:33.241Z,27.47
2019-02-28T10:32:02.576Z,28.70
2019-02-28T10:34:32.254Z,27.90
2019-02-28T10:37:01.468Z,27.47
2019-02-28T10:39:30.797Z,28.07
2019-02-28T10:42:01.584Z,30.40
2019-02-28T10:44:31.631Z,30.30
2019-02-28T10:47:01.402Z,31.70
2019-02-28T10:49:30.729Z,30.03
2019-02-28T10:52:00.109Z,29.70
2019-02-28T10:54:29.775Z,30.33
2019-02-28T10:56:59.639Z,32.10
2019-02-28T10:59:28.990Z,31.33
2019-02-28T11:01:58.299Z,31.10
2019-02-28T11:04:27.662Z,32.40
2019-02-28T11:06:59.343Z,32.93
2019-02-28T11:09:28.163Z,30.47
2019-02-28T11:11:57.480Z,32.60
2019-02-28T11:14:27.208Z,33.90
2019-02-28T11:16:59.421Z,32.30
2019-02-28T11:19:27.603Z,34.77
2019-02-28T11:21:56.945Z,34.80
2019-02-28T11:24:27.213Z,36.07
2019-02-28T11:26:56.712Z,35.20
2019-02-28T11:29:26.067Z,36.63
2019-02-28T11:31:55.382Z,38.20
2019-02-28T11:34:24.720Z,39.50
2019-02-28T11:36:54.466Z,40.10
2019-02-28T11:39:23.805Z,45.07
2019-02-28T11:41:54.321Z,48.00
2019-02-28T11:44:23.658Z,46.50
2019-02-28T11:46:53.008Z,44.37
2019-02-28T11:49:22.398Z,46.33
2019-02-28T11:51:53.036Z,44.03
2019-02-28T11:54:23.017Z,42.20
2019-02-28T11:56:52.321Z,40.40
2019-02-28T11:59:24.243Z,39.70
2019-02-28T12:01:53.113Z,35.90
2019-02-28T12:04:22.471Z,35.40
2019-02-28T12:06:51.871Z,36.20
2019-02-28T12:09:21.202Z,37.50
2019-02-28T12:11:50.900Z,36.40
2019-02-28T12:14:20.247Z,37.30
2019-02-28T12:16:52.751Z,34.83
2019-02-28T12:19:21.008Z,37.60
2019-02-28T12:21:50.412Z,36.23
2019-02-28T12:24:19.791Z,34.63
2019-02-28T12:26:49.326Z,32.27
2019-02-28T12:29:20.489Z,33.10
2019-02-28T12:31:49.879Z,32.90
2019-02-28T12:34:19.206Z,35.90
2019-02-28T12:36:49.345Z,33.40
2019-02-28T12:39:19.632Z,30.07
2019-02-28T12:41:48.989Z,29.00
2019-02-28T12:44:18.293Z,25.83
2019-02-28T12:46:47.617Z,26.30
2019-02-28T12:49:21.818Z,27.47
2019-02-28T12:51:48.013Z,25.07
2019-02-28T12:54:17.382Z,25.17
2019-02-28T12:56:47.761Z,25.43
2019-02-28T12:59:17.966Z,23.40
2019-02-28T13:01:47.295Z,25.00
2019-02-28T13:04:16.733Z,25.07
2019-02-28T13:06:46.373Z,24.33
2019-02-28T13:09:16.917Z,28.90
2019-02-28T13:11:46.995Z,25.50
2019-02-28T13:14:16.396Z,26.40
2019-02-28T13:16:46.093Z,25.73
2019-02-28T13:19:16.411Z,24.73
2019-02-28T13:21:47.858Z,25.80
2019-02-28T13:24:17.368Z,27.10
2019-02-28T13:26:46.760Z,23.43
2019-02-28T13:29:16.151Z,25.67
2019-02-28T13:31:45.537Z,21.37
2019-02-28T13:34:14.937Z,21.53
2019-02-28T13:36:44.594Z,20.40
2019-02-28T13:39:13.952Z,24.40
2019-02-28T13:41:43.330Z,21.40
2019-02-28T13:44:13.168Z,23.67
2019-02-28T13:46:43.087Z,19.23
2019-02-28T13:49:15.374Z,17.47
2019-02-28T13:51:43.545Z,18.53
2019-02-28T13:54:12.879Z,17.40
2019-02-28T13:56:42.576Z,17.17
2019-02-28T13:59:11.936Z,15.43
2019-02-28T14:01:41.284Z,16.47
2019-02-28T14:04:10.728Z,14.60
2019-02-28T14:06:40.114Z,14.47
2019-02-28T14:09:09.634Z,14.63
2019-02-28T14:11:41.898Z,13.20
2019-02-28T14:14:10.049Z,12.87
2019-02-28T14:16:39.383Z,14.00
2019-02-28T14:19:08.839Z,12.77
2019-02-28T14:21:38.167Z,12.17
2019-02-28T14:24:07.504Z,11.63
2019-02-28T14:26:42.837Z,14.27
2019-02-28T14:29:10.709Z,14.03
2019-02-28T14:31:39.709Z,13.37
2019-02-28T14:34:09.314Z,13.80
2019-02-28T14:36:41.683Z,12.87
2019-02-28T14:39:12.282Z,13.17
2019-02-28T14:41:41.789Z,14.10
2019-02-28T14:44:11.104Z,12.43
2019-02-28T14:46:40.455Z,12.30
2019-02-28T14:49:12.595Z,12.00
2019-02-28T14:51:40.888Z,10.67
2019-02-28T14:54:10.205Z,10.30
2019-02-28T14:56:42.177Z,10.60
2019-02-28T14:59:10.577Z,10.00
2019-02-28T15:01:40.348Z,10.00
2019-02-28T15:04:09.660Z,12.20
2019-02-28T15:06:39.080Z,10.93
2019-02-28T15:09:15.756Z,11.23
2019-02-28T15:11:47.066Z,10.13
2019-02-28T15:14:16.437Z,10.37
2019-02-28T15:16:45.770Z,11.07
2019-02-28T15:19:15.101Z,9.13
2019-02-28T15:21:44.516Z,8.53
2019-02-28T15:24:13.850Z,10.77
2019-02-28T15:26:43.225Z,9.93
2019-02-28T15:29:12.479Z,8.73
2019-02-28T15:31:43.471Z,10.83
2019-02-28T15:34:12.870Z,10.80
2019-02-28T15:36:42.480Z,10.07
2019-02-28T15:39:11.957Z,10.50
2019-02-28T15:41:41.355Z,9.97
2019-02-28T15:44:10.672Z,9.80
2019-02-28T15:46:39.981Z,11.60
2019-02-28T15:49:10.017Z,10.10
2019-02-28T15:51:40.284Z,10.27
2019-02-28T15:54:09.680Z,10.83
2019-02-28T15:56:39.407Z,10.30
2019-02-28T15:59:11.642Z,10.80
2019-02-28T16:01:39.800Z,11.10
2019-02-28T16:04:09.126Z,11.43
2019-02-28T16:06:39.993Z,10.93
2019-02-28T16:09:12.552Z,12.07
2019-02-28T16:11:42.412Z,11.10
2019-02-28T16:14:14.617Z,11.90
2019-02-28T16:16:42.837Z,13.40
2019-02-28T16:19:12.581Z,14.80
2019-02-28T16:21:42.587Z,11.40
2019-02-28T16:24:12.597Z,11.80
2019-02-28T16:26:41.965Z,12.37
2019-02-28T16:29:14.860Z,12.83
2019-02-28T16:31:42.833Z,11.80
2019-02-28T16:34:12.225Z,11.77
2019-02-28T16:36:42.274Z,12.43
2019-02-28T16:39:11.582Z,10.90
2019-02-28T16:41:41.363Z,11.00
2019-02-28T16:44:10.817Z,12.07
2019-02-28T16:46:40.205Z,11.23
2019-02-28T16:49:10.555Z,10.83
2019-02-28T16:51:41.120Z,13.20
2019-02-28T16:54:10.773Z,11.00
2019-02-28T16:56:40.241Z,12.60
2019-02-28T16:59:09.647Z,12.03
2019-02-28T17:01:39.081Z,11.80
2019-02-28T17:04:08.497Z,12.03
2019-02-28T17:06:38.252Z,12.60
2019-02-28T17:09:31.235Z,12.83
2019-02-28T17:12:10.882Z,11.30
2019-02-28T17:14:40.269Z,12.43
2019-02-28T17:17:17.558Z,11.83
2019-02-28T17:19:46.907Z,11.27
2019-02-28T17:22:16.239Z,13.50
2019-02-28T17:24:46.163Z,12.70
2019-02-28T17:27:30.095Z,12.33
2019-02-28T17:30:27.586Z,13.67
2019-02-28T17:32:57.027Z,12.20
2019-02-28T17:35:26.442Z,12.50
2019-02-28T17:37:59.853Z,12.93
2019-02-28T17:40:27.129Z,13.40
2019-02-28T17:42:56.559Z,11.57
2019-02-28T17:45:31.663Z,12.70
2019-02-28T17:48:36.511Z,12.03
2019-02-28T17:51:22.428Z,13.87
2019-02-28T17:54:22.036Z,13.00
2019-02-28T17:57:30.627Z,12.97
2019-02-28T18:00:51.839Z,12.17
2019-02-28T18:03:34.587Z,14.33
2019-02-28T18:06:53.032Z,11.30
2019-02-28T18:09:54.999Z,12.40
2019-02-28T18:13:22.656Z,12.60
2019-02-28T18:16:28.378Z,13.20
2019-02-28T18:19:44.711Z,11.03
2019-02-28T18:22:44.309Z,10.60
2019-02-28T18:25:38.798Z,10.80
2019-02-28T18:28:37.361Z,11.03
2019-02-28T18:31:13.629Z,11.10
2019-02-28T18:33:55.022Z,11.50
2019-02-28T18:36:26.897Z,10.30
2019-02-28T18:38:56.275Z,9.70
2019-02-28T18:41:25.589Z,11.07
2019-02-28T18:43:54.897Z,10.57
2019-02-28T18:46:24.540Z,13.23
2019-02-28T18:48:55.461Z,11.07
2019-02-28T18:51:25.024Z,10.80
2019-02-28T18:53:54.375Z,10.37
2019-02-28T18:56:23.690Z,13.80
2019-02-28T18:58:53.018Z,10.77
2019-02-28T19:01:22.780Z,10.43
2019-02-28T19:03:52.077Z,13.00
2019-02-28T19:06:21.870Z,17.73
2019-02-28T19:08:51.167Z,19.30
2019-02-28T19:11:21.292Z,11.90
2019-02-28T19:13:50.580Z,11.57
2019-02-28T19:16:19.942Z,9.33
2019-02-28T19:18:49.229Z,10.00
2019-02-28T19:21:18.901Z,9.27
2019-02-28T19:23:48.202Z,9.83
2019-02-28T19:26:19.441Z,8.43
2019-02-28T19:28:48.770Z,9.17
2019-02-28T19:31:18.770Z,10.10
2019-02-28T19:33:48.121Z,9.30
2019-02-28T19:36:17.377Z,7.43
2019-02-28T19:38:47.096Z,8.30
2019-02-28T19:41:16.451Z,7.93
2019-02-28T19:43:45.741Z,7.77
2019-02-28T19:46:15.058Z,7.87
2019-02-28T19:48:44.407Z,9.20
2019-02-28T19:51:13.728Z,8.13
2019-02-28T19:53:43.061Z,10.80
2019-02-28T19:56:12.378Z,10.23
2019-02-28T19:58:42.428Z,10.27
2019-02-28T20:01:18.820Z,11.00
2019-02-28T20:03:42.925Z,11.20
2019-02-28T20:06:12.248Z,9.83
2019-02-28T20:08:41.676Z,10.40
2019-02-28T20:11:10.972Z,11.53
2019-02-28T20:13:40.701Z,11.20
2019-02-28T20:16:10.112Z,10.30
2019-02-28T20:18:39.394Z,10.50
2019-02-28T20:21:09.045Z,10.83
2019-02-28T20:23:38.382Z,10.60
2019-02-28T20:26:07.740Z,9.00
2019-02-28T20:28:37.095Z,10.50
2019-02-28T20:31:06.608Z,10.57
2019-02-28T20:33:36.664Z,11.03
2019-02-28T20:36:05.987Z,11.00
2019-02-28T20:38:35.409Z,11.30
2019-02-28T20:41:04.725Z,15.07
2019-02-28T20:43:34.348Z,11.67
2019-02-28T20:46:03.588Z,10.70
2019-02-28T20:48:33.179Z,10.70
2019-02-28T20:51:02.469Z,8.13
2019-02-28T20:53:31.823Z,10.10
2019-02-28T20:56:01.184Z,6.83
2019-02-28T20:58:30.450Z,8.50
2019-02-28T21:00:59.811Z,8.10
2019-02-28T21:03:29.648Z,7.40
2019-02-28T21:05:59.375Z,7.70
2019-02-28T21:08:28.770Z,6.10
2019-02-28T21:10:58.406Z,6.30
2019-02-28T21:13:27.697Z,6.63
2019-02-28T21:15:57.029Z,5.73
2019-02-28T21:18:26.316Z,5.97
2019-02-28T21:20:55.625Z,5.40
2019-02-28T21:23:24.920Z,6.67
2019-02-28T21:25:54.234Z,5.33
2019-02-28T21:28:23.525Z,6.00
2019-02-28T21:30:52.837Z,5.90
2019-02-28T21:33:22.152Z,6.17
2019-02-28T21:35:51.580Z,5.90
2019-02-28T21:38:21.468Z,5.10
2019-02-28T21:40:50.849Z,5.83
2019-02-28T21:43:20.169Z,5.57
2019-02-28T21:45:49.482Z,4.90
2019-02-28T21:48:18.780Z,4.73
2019-02-28T21:50:48.510Z,3.70
2019-02-28T21:53:18.135Z,4.00
2019-02-28T21:55:47.608Z,4.50
2019-02-28T21:58:16.911Z,3.80
2019-02-28T22:00:46.302Z,3.70
2019-02-28T22:03:15.573Z,5.10
2019-02-28T22:05:45.347Z,4.80
2019-02-28T22:08:14.710Z,5.27
2019-02-28T22:10:44.012Z,5.00
2019-02-28T22:13:13.401Z,4.80
2019-02-28T22:15:42.709Z,5.10
2019-02-28T22:18:12.096Z,4.40
2019-02-28T22:20:41.392Z,5.60
2019-02-28T22:23:10.727Z,5.70
2019-02-28T22:25:40.234Z,4.80
2019-02-28T22:28:09.658Z,5.27
2019-02-28T22:31:01.362Z,5.73
2019-02-28T22:33:49.640Z,6.30
2019-02-28T22:36:22.716Z,4.77
2019-02-28T22:38:52.204Z,4.93
2019-02-28T22:41:21.459Z,4.27
2019-02-28T22:43:51.865Z,4.40
2019-02-28T22:46:21.492Z,4.23
2019-02-28T22:48:50.826Z,4.70
2019-02-28T22:51:20.135Z,5.17
2019-02-28T22:53:49.558Z,4.10
2019-02-28T22:56:19.253Z,5.40
2019-02-28T22:58:48.568Z,4.17
2019-02-28T23:01:20.100Z,5.40
2019-02-28T23:03:49.709Z,5.10
2019-02-28T23:06:19.121Z,5.30
2019-02-28T23:08:48.424Z,4.70
2019-02-28T23:11:17.754Z,5.77
2019-02-28T23:13:47.089Z,5.70
2019-02-28T23:16:16.580Z,5.93
2019-02-28T23:18:45.910Z,5.57
2019-02-28T23:21:15.277Z,4.93
2019-02-28T23:23:44.580Z,4.97
2019-02-28T23:26:15.088Z,5.30
2019-02-28T23:28:58.014Z,4.97
2019-02-28T23:32:09.432Z,5.10
2019-02-28T23:34:41.510Z,5.07
2019-02-28T23:37:10.808Z,4.57
2019-02-28T23:39:40.133Z,5.23
2019-02-28T23:42:09.490Z,5.47
2019-02-28T23:44:39.333Z,6.83
2019-02-28T23:47:08.665Z,5.50
2019-02-28T23:49:37.961Z,5.33
2019-02-28T23:52:07.348Z,5.50
2019-02-28T23:54:37.044Z,5.40
2019-02-28T23:57:06.336Z,4.43
2019-02-28T23:59:35.928Z,3.97
